sensor_id;sensor_type;location;lat;lon;timestamp;temperature;humidity
22073;DHT22;11202;50.916;4.698;2022-09-27T00:00:56;10.30;99.90
22073;DHT22;11202;50.916;4.698;2022-09-27T00:03:22;10.30;99.90
22073;DHT22;11202;50.916;4.698;2022-09-27T00:06:02;10.30;99.90
22073;DHT22;11202;50.916;4.698;2022-09-27T00:08:32;10.30;99.90
22073;DHT22;11202;50.916;4.698;2022-09-27T00:11:03;10.40;99.90
22073;DHT22;11202;50.916;4.698;2022-09-27T00:13:29;10.40;99.90
22073;DHT22;11202;50.916;4.698;2022-09-27T00:15:56;10.40;99.90
22073;DHT22;11202;50.916;4.698;2022-09-27T00:18:22;10.40;99.90
22073;DHT22;11202;50.916;4.698;2022-09-27T00:20:48;10.30;99.90
22073;DHT22;11202;50.916;4.698;2022-09-27T00:23:14;10.20;99.90
22073;DHT22;11202;50.916;4.698;2022-09-27T00:25:39;10.30;99.90
22073;DHT22;11202;50.916;4.698;2022-09-27T00:28:05;10.40;99.90
22073;DHT22;11202;50.916;4.698;2022-09-27T00:30:34;10.40;99.90
22073;DHT22;11202;50.916;4.698;2022-09-27T00:32:59;10.50;99.90
22073;DHT22;11202;50.916;4.698;2022-09-27T00:35:25;10.50;99.90
22073;DHT22;11202;50.916;4.698;2022-09-27T00:37:53;10.50;99.90
22073;DHT22;11202;50.916;4.698;2022-09-27T00:40:24;10.60;99.90
22073;DHT22;11202;50.916;4.698;2022-09-27T00:42:50;10.60;99.90
22073;DHT22;11202;50.916;4.698;2022-09-27T00:45:16;10.50;99.90
22073;DHT22;11202;50.916;4.698;2022-09-27T00:47:45;10.50;99.90
22073;DHT22;11202;50.916;4.698;2022-09-27T00:50:28;10.40;99.90
22073;DHT22;11202;50.916;4.698;2022-09-27T00:53:07;10.40;99.90
22073;DHT22;11202;50.916;4.698;2022-09-27T00:55:51;10.40;99.90
22073;DHT22;11202;50.916;4.698;2022-09-27T00:58:23;10.50;99.90
22073;DHT22;11202;50.916;4.698;2022-09-27T01:00:55;10.40;99.90
22073;DHT22;11202;50.916;4.698;2022-09-27T01:03:33;10.30;99.90
22073;DHT22;11202;50.916;4.698;2022-09-27T01:06:01;10.40;99.90
22073;DHT22;11202;50.916;4.698;2022-09-27T01:08:29;10.40;99.90
22073;DHT22;11202;50.916;4.698;2022-09-27T01:16:34;10.20;99.90
22073;DHT22;11202;50.916;4.698;2022-09-27T01:24:24;10.20;99.90
22073;DHT22;11202;50.916;4.698;2022-09-27T01:33:01;10.10;99.90
22073;DHT22;11202;50.916;4.698;2022-09-27T01:38:22;10.20;99.90
22073;DHT22;11202;50.916;4.698;2022-09-27T01:43:43;10.20;99.90
22073;DHT22;11202;50.916;4.698;2022-09-27T01:46:46;10.10;99.90
22073;DHT22;11202;50.916;4.698;2022-09-27T01:49:09;10.10;99.90
22073;DHT22;11202;50.916;4.698;2022-09-27T01:51:43;10.10;99.90
22073;DHT22;11202;50.916;4.698;2022-09-27T01:54:12;10.10;99.90
22073;DHT22;11202;50.916;4.698;2022-09-27T01:56:46;10.10;99.90
22073;DHT22;11202;50.916;4.698;2022-09-27T01:59:23;10.10;99.90
22073;DHT22;11202;50.916;4.698;2022-09-27T02:01:54;10.00;99.90
22073;DHT22;11202;50.916;4.698;2022-09-27T02:04:27;10.00;99.90
22073;DHT22;11202;50.916;4.698;2022-09-27T02:07:00;10.00;99.90
22073;DHT22;11202;50.916;4.698;2022-09-27T02:09:40;9.90;99.90
22073;DHT22;11202;50.916;4.698;2022-09-27T02:12:12;9.90;99.90
22073;DHT22;11202;50.916;4.698;2022-09-27T02:15:03;10.00;99.90
22073;DHT22;11202;50.916;4.698;2022-09-27T02:17:55;9.90;99.90
22073;DHT22;11202;50.916;4.698;2022-09-27T02:20:29;10.00;99.90
22073;DHT22;11202;50.916;4.698;2022-09-27T02:23:25;10.00;99.90
22073;DHT22;11202;50.916;4.698;2022-09-27T02:25:57;10.00;99.90
22073;DHT22;11202;50.916;4.698;2022-09-27T02:28:35;10.00;99.90
22073;DHT22;11202;50.916;4.698;2022-09-27T02:31:04;10.10;99.90
22073;DHT22;11202;50.916;4.698;2022-09-27T02:36:04;10.30;99.90
22073;DHT22;11202;50.916;4.698;2022-09-27T02:38:31;10.20;99.90
22073;DHT22;11202;50.916;4.698;2022-09-27T02:41:01;10.20;99.90
22073;DHT22;11202;50.916;4.698;2022-09-27T02:43:29;10.10;99.90
22073;DHT22;11202;50.916;4.698;2022-09-27T02:53:58;10.10;99.90
22073;DHT22;11202;50.916;4.698;2022-09-27T03:04:43;10.30;99.90
22073;DHT22;11202;50.916;4.698;2022-09-27T03:07:12;10.40;99.90
22073;DHT22;11202;50.916;4.698;2022-09-27T03:09:42;10.40;99.90
22073;DHT22;11202;50.916;4.698;2022-09-27T03:12:09;10.40;99.90
22073;DHT22;11202;50.916;4.698;2022-09-27T03:14:34;10.50;99.90
22073;DHT22;11202;50.916;4.698;2022-09-27T03:17:00;10.50;99.90
22073;DHT22;11202;50.916;4.698;2022-09-27T03:19:26;10.60;99.90
22073;DHT22;11202;50.916;4.698;2022-09-27T03:21:52;10.70;99.90
22073;DHT22;11202;50.916;4.698;2022-09-27T03:24:18;10.60;99.90
22073;DHT22;11202;50.916;4.698;2022-09-27T03:26:44;10.50;99.90
22073;DHT22;11202;50.916;4.698;2022-09-27T03:29:10;10.40;99.90
22073;DHT22;11202;50.916;4.698;2022-09-27T03:31:36;10.30;99.90
22073;DHT22;11202;50.916;4.698;2022-09-27T03:34:02;10.30;99.90
22073;DHT22;11202;50.916;4.698;2022-09-27T03:36:30;10.20;99.90
22073;DHT22;11202;50.916;4.698;2022-09-27T03:38:57;10.10;99.90
22073;DHT22;11202;50.916;4.698;2022-09-27T03:41:23;10.10;99.90
22073;DHT22;11202;50.916;4.698;2022-09-27T03:43:51;10.00;99.90
22073;DHT22;11202;50.916;4.698;2022-09-27T03:46:17;10.10;99.90
22073;DHT22;11202;50.916;4.698;2022-09-27T03:48:45;10.20;99.90
22073;DHT22;11202;50.916;4.698;2022-09-27T03:51:11;10.10;99.90
22073;DHT22;11202;50.916;4.698;2022-09-27T03:53:39;10.20;99.90
22073;DHT22;11202;50.916;4.698;2022-09-27T03:56:08;10.20;99.90
22073;DHT22;11202;50.916;4.698;2022-09-27T03:58:36;10.20;99.90
22073;DHT22;11202;50.916;4.698;2022-09-27T04:01:02;10.20;99.90
22073;DHT22;11202;50.916;4.698;2022-09-27T04:03:28;10.20;99.90
22073;DHT22;11202;50.916;4.698;2022-09-27T04:05:54;10.20;99.90
22073;DHT22;11202;50.916;4.698;2022-09-27T04:08:20;10.20;99.90
22073;DHT22;11202;50.916;4.698;2022-09-27T04:10:49;10.20;99.90
22073;DHT22;11202;50.916;4.698;2022-09-27T04:13:16;10.00;99.90
22073;DHT22;11202;50.916;4.698;2022-09-27T04:15:42;10.00;99.90
22073;DHT22;11202;50.916;4.698;2022-09-27T04:18:08;10.00;99.90
22073;DHT22;11202;50.916;4.698;2022-09-27T04:20:34;10.00;99.90
22073;DHT22;11202;50.916;4.698;2022-09-27T04:23:01;10.00;99.90
22073;DHT22;11202;50.916;4.698;2022-09-27T04:25:27;9.90;99.90
22073;DHT22;11202;50.916;4.698;2022-09-27T04:27:53;9.90;99.90
22073;DHT22;11202;50.916;4.698;2022-09-27T04:30:21;9.90;99.90
22073;DHT22;11202;50.916;4.698;2022-09-27T04:32:47;9.90;99.90
22073;DHT22;11202;50.916;4.698;2022-09-27T04:35:13;9.80;99.90
22073;DHT22;11202;50.916;4.698;2022-09-27T04:37:58;9.70;99.90
22073;DHT22;11202;50.916;4.698;2022-09-27T04:40:25;9.60;99.90
22073;DHT22;11202;50.916;4.698;2022-09-27T04:42:51;9.50;99.90
22073;DHT22;11202;50.916;4.698;2022-09-27T04:45:18;9.50;99.90
22073;DHT22;11202;50.916;4.698;2022-09-27T04:47:48;9.60;99.90
22073;DHT22;11202;50.916;4.698;2022-09-27T04:50:17;9.70;99.90
22073;DHT22;11202;50.916;4.698;2022-09-27T04:52:48;9.70;99.90
22073;DHT22;11202;50.916;4.698;2022-09-27T04:55:14;9.70;99.90
22073;DHT22;11202;50.916;4.698;2022-09-27T04:57:42;9.70;99.90
22073;DHT22;11202;50.916;4.698;2022-09-27T05:00:09;9.60;99.90
22073;DHT22;11202;50.916;4.698;2022-09-27T05:02:36;9.60;99.90
22073;DHT22;11202;50.916;4.698;2022-09-27T05:05:02;9.60;99.90
22073;DHT22;11202;50.916;4.698;2022-09-27T05:07:32;9.60;99.90
22073;DHT22;11202;50.916;4.698;2022-09-27T05:09:58;9.70;99.90
22073;DHT22;11202;50.916;4.698;2022-09-27T05:12:26;9.70;99.90
22073;DHT22;11202;50.916;4.698;2022-09-27T05:14:53;9.80;99.90
22073;DHT22;11202;50.916;4.698;2022-09-27T05:17:19;9.80;99.90
22073;DHT22;11202;50.916;4.698;2022-09-27T05:19:47;9.90;99.90
22073;DHT22;11202;50.916;4.698;2022-09-27T05:22:12;9.80;99.90
22073;DHT22;11202;50.916;4.698;2022-09-27T05:24:38;9.80;99.90
22073;DHT22;11202;50.916;4.698;2022-09-27T05:27:04;9.70;99.90
22073;DHT22;11202;50.916;4.698;2022-09-27T05:29:33;9.60;99.90
22073;DHT22;11202;50.916;4.698;2022-09-27T05:32:01;9.60;99.90
22073;DHT22;11202;50.916;4.698;2022-09-27T05:34:32;9.50;99.90
22073;DHT22;11202;50.916;4.698;2022-09-27T05:37:06;9.60;99.90
22073;DHT22;11202;50.916;4.698;2022-09-27T05:39:32;9.60;99.90
22073;DHT22;11202;50.916;4.698;2022-09-27T05:42:00;9.70;99.90
22073;DHT22;11202;50.916;4.698;2022-09-27T05:44:29;9.80;99.90
22073;DHT22;11202;50.916;4.698;2022-09-27T05:46:55;9.80;99.90
22073;DHT22;11202;50.916;4.698;2022-09-27T05:49:21;9.80;99.90
22073;DHT22;11202;50.916;4.698;2022-09-27T05:51:47;9.90;99.90
22073;DHT22;11202;50.916;4.698;2022-09-27T05:54:15;9.90;99.90
22073;DHT22;11202;50.916;4.698;2022-09-27T05:56:40;9.80;99.90
22073;DHT22;11202;50.916;4.698;2022-09-27T05:59:06;9.80;99.90
22073;DHT22;11202;50.916;4.698;2022-09-27T06:01:32;9.60;99.90
22073;DHT22;11202;50.916;4.698;2022-09-27T06:04:01;9.70;99.90
22073;DHT22;11202;50.916;4.698;2022-09-27T06:06:27;9.90;99.90
22073;DHT22;11202;50.916;4.698;2022-09-27T06:08:52;10.00;99.90
22073;DHT22;11202;50.916;4.698;2022-09-27T06:11:18;9.90;99.90
22073;DHT22;11202;50.916;4.698;2022-09-27T06:13:47;9.90;99.90
22073;DHT22;11202;50.916;4.698;2022-09-27T06:16:12;10.00;99.90
22073;DHT22;11202;50.916;4.698;2022-09-27T06:18:41;10.00;99.90
22073;DHT22;11202;50.916;4.698;2022-09-27T06:21:09;10.00;99.90
22073;DHT22;11202;50.916;4.698;2022-09-27T06:23:37;9.90;99.90
22073;DHT22;11202;50.916;4.698;2022-09-27T06:26:05;9.90;99.90
22073;DHT22;11202;50.916;4.698;2022-09-27T06:28:32;9.80;99.90
22073;DHT22;11202;50.916;4.698;2022-09-27T06:31:00;10.00;99.90
22073;DHT22;11202;50.916;4.698;2022-09-27T06:33:26;10.00;99.90
22073;DHT22;11202;50.916;4.698;2022-09-27T06:35:55;9.90;99.90
22073;DHT22;11202;50.916;4.698;2022-09-27T06:38:21;10.00;99.90
22073;DHT22;11202;50.916;4.698;2022-09-27T06:40:50;10.00;99.90
22073;DHT22;11202;50.916;4.698;2022-09-27T06:43:18;9.90;99.90
22073;DHT22;11202;50.916;4.698;2022-09-27T06:45:45;9.90;99.90
22073;DHT22;11202;50.916;4.698;2022-09-27T06:48:14;10.00;99.90
22073;DHT22;11202;50.916;4.698;2022-09-27T06:50:43;9.90;99.90
22073;DHT22;11202;50.916;4.698;2022-09-27T06:53:10;10.00;99.90
22073;DHT22;11202;50.916;4.698;2022-09-27T06:55:37;10.10;99.90
22073;DHT22;11202;50.916;4.698;2022-09-27T06:58:04;10.20;99.90
22073;DHT22;11202;50.916;4.698;2022-09-27T07:00:52;10.30;99.90
22073;DHT22;11202;50.916;4.698;2022-09-27T07:03:22;10.20;99.90
22073;DHT22;11202;50.916;4.698;2022-09-27T07:06:16;10.10;99.90
22073;DHT22;11202;50.916;4.698;2022-09-27T07:08:42;10.00;99.90
22073;DHT22;11202;50.916;4.698;2022-09-27T07:11:12;10.00;99.90
22073;DHT22;11202;50.916;4.698;2022-09-27T07:13:39;10.00;99.90
22073;DHT22;11202;50.916;4.698;2022-09-27T07:16:09;10.20;99.90
22073;DHT22;11202;50.916;4.698;2022-09-27T07:18:37;10.90;99.90
22073;DHT22;11202;50.916;4.698;2022-09-27T07:21:06;11.50;99.90
22073;DHT22;11202;50.916;4.698;2022-09-27T07:23:33;11.40;99.90
22073;DHT22;11202;50.916;4.698;2022-09-27T07:26:03;11.10;99.90
22073;DHT22;11202;50.916;4.698;2022-09-27T07:28:29;11.00;99.90
22073;DHT22;11202;50.916;4.698;2022-09-27T07:30:56;11.00;99.90
22073;DHT22;11202;50.916;4.698;2022-09-27T07:33:22;11.00;99.90
22073;DHT22;11202;50.916;4.698;2022-09-27T07:35:48;11.30;99.90
22073;DHT22;11202;50.916;4.698;2022-09-27T07:38:13;11.40;99.90
22073;DHT22;11202;50.916;4.698;2022-09-27T07:40:41;11.20;99.90
22073;DHT22;11202;50.916;4.698;2022-09-27T07:43:07;11.10;99.90
22073;DHT22;11202;50.916;4.698;2022-09-27T07:45:34;10.90;99.90
22073;DHT22;11202;50.916;4.698;2022-09-27T07:47:59;10.90;99.90
22073;DHT22;11202;50.916;4.698;2022-09-27T07:50:28;11.00;99.90
22073;DHT22;11202;50.916;4.698;2022-09-27T07:52:56;11.20;99.90
22073;DHT22;11202;50.916;4.698;2022-09-27T07:55:22;11.60;99.90
22073;DHT22;11202;50.916;4.698;2022-09-27T07:57:49;12.20;99.90
22073;DHT22;11202;50.916;4.698;2022-09-27T08:00:16;12.80;99.90
22073;DHT22;11202;50.916;4.698;2022-09-27T08:02:44;13.10;99.90
22073;DHT22;11202;50.916;4.698;2022-09-27T08:05:13;12.90;99.90
22073;DHT22;11202;50.916;4.698;2022-09-27T08:07:39;12.70;99.90
22073;DHT22;11202;50.916;4.698;2022-09-27T08:10:08;12.30;99.90
22073;DHT22;11202;50.916;4.698;2022-09-27T08:12:36;12.00;99.90
22073;DHT22;11202;50.916;4.698;2022-09-27T08:15:03;11.80;99.90
22073;DHT22;11202;50.916;4.698;2022-09-27T08:17:32;11.80;99.90
22073;DHT22;11202;50.916;4.698;2022-09-27T08:19:57;11.70;99.90
22073;DHT22;11202;50.916;4.698;2022-09-27T08:22:26;11.70;99.90
22073;DHT22;11202;50.916;4.698;2022-09-27T08:24:52;11.50;99.90
22073;DHT22;11202;50.916;4.698;2022-09-27T08:27:18;11.40;99.90
22073;DHT22;11202;50.916;4.698;2022-09-27T08:29:47;11.50;99.90
22073;DHT22;11202;50.916;4.698;2022-09-27T08:32:13;11.40;99.90
22073;DHT22;11202;50.916;4.698;2022-09-27T08:34:43;11.50;99.90
22073;DHT22;11202;50.916;4.698;2022-09-27T08:37:09;11.60;99.90
22073;DHT22;11202;50.916;4.698;2022-09-27T08:39:35;11.60;99.90
22073;DHT22;11202;50.916;4.698;2022-09-27T08:45:15;11.90;99.90
22073;DHT22;11202;50.916;4.698;2022-09-27T08:47:46;12.00;99.90
22073;DHT22;11202;50.916;4.698;2022-09-27T08:56:07;12.20;99.90
22073;DHT22;11202;50.916;4.698;2022-09-27T08:58:42;12.20;99.90
22073;DHT22;11202;50.916;4.698;2022-09-27T09:01:16;12.10;99.90
22073;DHT22;11202;50.916;4.698;2022-09-27T09:03:52;11.90;99.90
22073;DHT22;11202;50.916;4.698;2022-09-27T09:06:45;11.90;99.90
22073;DHT22;11202;50.916;4.698;2022-09-27T09:09:52;11.80;99.90
22073;DHT22;11202;50.916;4.698;2022-09-27T09:15:44;11.60;99.90
22073;DHT22;11202;50.916;4.698;2022-09-27T09:27:09;11.30;99.90
22073;DHT22;11202;50.916;4.698;2022-09-27T09:33:12;11.30;99.90
22073;DHT22;11202;50.916;4.698;2022-09-27T09:35:58;11.20;99.90
22073;DHT22;11202;50.916;4.698;2022-09-27T09:38:44;11.20;99.90
22073;DHT22;11202;50.916;4.698;2022-09-27T09:41:27;11.40;99.90
22073;DHT22;11202;50.916;4.698;2022-09-27T09:44:06;11.30;99.90
22073;DHT22;11202;50.916;4.698;2022-09-27T09:46:40;11.10;99.90
22073;DHT22;11202;50.916;4.698;2022-09-27T09:49:30;11.00;99.90
22073;DHT22;11202;50.916;4.698;2022-09-27T09:52:13;10.90;99.90
22073;DHT22;11202;50.916;4.698;2022-09-27T09:54:47;10.90;99.90
22073;DHT22;11202;50.916;4.698;2022-09-27T09:57:39;10.90;99.90
22073;DHT22;11202;50.916;4.698;2022-09-27T10:00:14;11.00;99.90
22073;DHT22;11202;50.916;4.698;2022-09-27T10:02:45;11.00;99.90
22073;DHT22;11202;50.916;4.698;2022-09-27T10:05:15;11.00;99.90
22073;DHT22;11202;50.916;4.698;2022-09-27T10:07:42;11.00;99.90
22073;DHT22;11202;50.916;4.698;2022-09-27T10:10:15;11.10;99.90
22073;DHT22;11202;50.916;4.698;2022-09-27T10:12:45;11.20;99.90
22073;DHT22;11202;50.916;4.698;2022-09-27T10:15:19;11.40;99.90
22073;DHT22;11202;50.916;4.698;2022-09-27T10:17:48;11.70;99.90
22073;DHT22;11202;50.916;4.698;2022-09-27T10:20:54;11.90;99.90
22073;DHT22;11202;50.916;4.698;2022-09-27T10:23:22;12.10;99.90
22073;DHT22;11202;50.916;4.698;2022-09-27T10:25:52;12.30;99.90
22073;DHT22;11202;50.916;4.698;2022-09-27T10:28:30;12.60;99.90
22073;DHT22;11202;50.916;4.698;2022-09-27T10:31:06;12.80;99.90
22073;DHT22;11202;50.916;4.698;2022-09-27T10:33:35;12.90;99.90
22073;DHT22;11202;50.916;4.698;2022-09-27T10:36:28;12.90;99.90
22073;DHT22;11202;50.916;4.698;2022-09-27T10:38:55;12.80;99.90
22073;DHT22;11202;50.916;4.698;2022-09-27T10:41:35;13.00;99.90
22073;DHT22;11202;50.916;4.698;2022-09-27T10:46:49;13.30;99.90
22073;DHT22;11202;50.916;4.698;2022-09-27T10:49:24;13.60;99.90
22073;DHT22;11202;50.916;4.698;2022-09-27T10:51:54;13.80;99.90
22073;DHT22;11202;50.916;4.698;2022-09-27T10:54:26;13.90;99.90
22073;DHT22;11202;50.916;4.698;2022-09-27T10:56:58;14.00;99.90
22073;DHT22;11202;50.916;4.698;2022-09-27T10:59:26;14.00;99.90
22073;DHT22;11202;50.916;4.698;2022-09-27T11:01:52;13.90;99.90
22073;DHT22;11202;50.916;4.698;2022-09-27T11:04:32;14.00;99.90
22073;DHT22;11202;50.916;4.698;2022-09-27T11:07:15;14.20;99.90
22073;DHT22;11202;50.916;4.698;2022-09-27T11:09:58;14.30;99.90
22073;DHT22;11202;50.916;4.698;2022-09-27T11:12:30;14.40;99.90
22073;DHT22;11202;50.916;4.698;2022-09-27T11:14:59;14.40;99.90
22073;DHT22;11202;50.916;4.698;2022-09-27T11:20:32;14.20;99.90
22073;DHT22;11202;50.916;4.698;2022-09-27T11:23:22;14.10;99.90
22073;DHT22;11202;50.916;4.698;2022-09-27T11:26:09;14.20;99.90
22073;DHT22;11202;50.916;4.698;2022-09-27T11:37:08;13.70;99.90
22073;DHT22;11202;50.916;4.698;2022-09-27T11:39:44;13.50;99.90
22073;DHT22;11202;50.916;4.698;2022-09-27T11:42:42;13.30;99.90
22073;DHT22;11202;50.916;4.698;2022-09-27T11:48:22;10.90;99.90
22073;DHT22;11202;50.916;4.698;2022-09-27T11:51:27;10.40;99.90
22073;DHT22;11202;50.916;4.698;2022-09-27T11:54:02;10.00;99.90
22073;DHT22;11202;50.916;4.698;2022-09-27T12:02:51;10.00;99.90
22073;DHT22;11202;50.916;4.698;2022-09-27T12:05:35;10.40;99.90
22073;DHT22;11202;50.916;4.698;2022-09-27T12:08:47;10.90;99.90
22073;DHT22;11202;50.916;4.698;2022-09-27T12:16:45;11.80;99.90
22073;DHT22;11202;50.916;4.698;2022-09-27T12:19:29;11.90;99.90
22073;DHT22;11202;50.916;4.698;2022-09-27T12:21:59;12.30;99.90
22073;DHT22;11202;50.916;4.698;2022-09-27T12:24:27;12.70;99.90
22073;DHT22;11202;50.916;4.698;2022-09-27T12:26:57;13.10;99.90
22073;DHT22;11202;50.916;4.698;2022-09-27T12:29:29;13.10;99.90
22073;DHT22;11202;50.916;4.698;2022-09-27T12:32:12;13.20;99.90
22073;DHT22;11202;50.916;4.698;2022-09-27T12:34:45;13.30;99.90
22073;DHT22;11202;50.916;4.698;2022-09-27T12:39:54;13.70;99.90
22073;DHT22;11202;50.916;4.698;2022-09-27T12:42:41;13.90;99.90
22073;DHT22;11202;50.916;4.698;2022-09-27T12:45:14;13.70;99.90
22073;DHT22;11202;50.916;4.698;2022-09-27T12:50:39;13.80;99.90
22073;DHT22;11202;50.916;4.698;2022-09-27T12:53:27;14.00;99.90
22073;DHT22;11202;50.916;4.698;2022-09-27T13:04:19;14.50;99.90
22073;DHT22;11202;50.916;4.698;2022-09-27T13:07:41;14.80;99.90
22073;DHT22;11202;50.916;4.698;2022-09-27T13:12:36;15.00;99.90
22073;DHT22;11202;50.916;4.698;2022-09-27T13:15:14;14.80;99.90
22073;DHT22;11202;50.916;4.698;2022-09-27T13:22:55;14.40;99.90
22073;DHT22;11202;50.916;4.698;2022-09-27T13:25:59;14.40;99.90
22073;DHT22;11202;50.916;4.698;2022-09-27T13:28:31;14.20;99.90
22073;DHT22;11202;50.916;4.698;2022-09-27T13:30:59;13.30;99.90
22073;DHT22;11202;50.916;4.698;2022-09-27T13:47:20;12.20;99.90
22073;DHT22;11202;50.916;4.698;2022-09-27T13:49:50;12.40;99.90
22073;DHT22;11202;50.916;4.698;2022-09-27T13:52:30;12.70;99.90
22073;DHT22;11202;50.916;4.698;2022-09-27T13:54:59;12.80;99.90
22073;DHT22;11202;50.916;4.698;2022-09-27T13:57:56;12.90;99.90
22073;DHT22;11202;50.916;4.698;2022-09-27T14:00:43;13.00;99.90
22073;DHT22;11202;50.916;4.698;2022-09-27T14:05:42;13.20;99.90
22073;DHT22;11202;50.916;4.698;2022-09-27T14:11:01;13.40;99.90
22073;DHT22;11202;50.916;4.698;2022-09-27T14:13:30;13.40;99.90
22073;DHT22;11202;50.916;4.698;2022-09-27T14:16:02;13.50;99.90
22073;DHT22;11202;50.916;4.698;2022-09-27T14:18:29;13.60;99.90
22073;DHT22;11202;50.916;4.698;2022-09-27T14:21:16;13.70;99.90
22073;DHT22;11202;50.916;4.698;2022-09-27T14:23:42;13.90;99.90
22073;DHT22;11202;50.916;4.698;2022-09-27T14:26:23;13.90;99.90
22073;DHT22;11202;50.916;4.698;2022-09-27T14:28:49;13.90;99.90
22073;DHT22;11202;50.916;4.698;2022-09-27T14:31:15;13.90;99.90
22073;DHT22;11202;50.916;4.698;2022-09-27T14:33:43;13.90;99.90
22073;DHT22;11202;50.916;4.698;2022-09-27T14:36:33;13.90;99.90
22073;DHT22;11202;50.916;4.698;2022-09-27T14:39:36;13.80;99.90
22073;DHT22;11202;50.916;4.698;2022-09-27T14:42:04;13.80;99.90
22073;DHT22;11202;50.916;4.698;2022-09-27T14:44:43;13.60;99.90
22073;DHT22;11202;50.916;4.698;2022-09-27T14:47:18;13.60;99.90
22073;DHT22;11202;50.916;4.698;2022-09-27T14:49:53;13.70;99.90
22073;DHT22;11202;50.916;4.698;2022-09-27T14:52:25;13.90;99.90
22073;DHT22;11202;50.916;4.698;2022-09-27T14:54:58;14.30;99.90
22073;DHT22;11202;50.916;4.698;2022-09-27T14:57:29;14.60;99.90
22073;DHT22;11202;50.916;4.698;2022-09-27T15:00:14;14.50;99.90
22073;DHT22;11202;50.916;4.698;2022-09-27T15:02:44;14.50;99.90
22073;DHT22;11202;50.916;4.698;2022-09-27T15:05:17;14.60;99.90
22073;DHT22;11202;50.916;4.698;2022-09-27T15:07:46;14.50;99.90
22073;DHT22;11202;50.916;4.698;2022-09-27T15:10:20;14.40;99.90
22073;DHT22;11202;50.916;4.698;2022-09-27T15:12:50;14.40;99.90
22073;DHT22;11202;50.916;4.698;2022-09-27T15:15:21;14.40;99.90
22073;DHT22;11202;50.916;4.698;2022-09-27T15:17:48;14.20;99.90
22073;DHT22;11202;50.916;4.698;2022-09-27T15:22:53;13.30;99.90
22073;DHT22;11202;50.916;4.698;2022-09-27T15:27:58;12.10;99.90
22073;DHT22;11202;50.916;4.698;2022-09-27T15:30:34;11.70;99.90
22073;DHT22;11202;50.916;4.698;2022-09-27T15:33:00;11.30;99.90
22073;DHT22;11202;50.916;4.698;2022-09-27T15:35:30;11.20;99.90
22073;DHT22;11202;50.916;4.698;2022-09-27T15:38:12;11.10;99.90
22073;DHT22;11202;50.916;4.698;2022-09-27T15:43:28;11.50;99.90
22073;DHT22;11202;50.916;4.698;2022-09-27T15:45:59;11.70;99.90
22073;DHT22;11202;50.916;4.698;2022-09-27T15:48:29;11.90;99.90
22073;DHT22;11202;50.916;4.698;2022-09-27T15:50:56;12.00;99.90
22073;DHT22;11202;50.916;4.698;2022-09-27T15:55:57;12.40;99.90
22073;DHT22;11202;50.916;4.698;2022-09-27T15:58:25;12.60;99.90
22073;DHT22;11202;50.916;4.698;2022-09-27T16:00:59;12.70;99.90
22073;DHT22;11202;50.916;4.698;2022-09-27T16:03:31;12.60;99.90
22073;DHT22;11202;50.916;4.698;2022-09-27T16:05:58;12.60;99.90
22073;DHT22;11202;50.916;4.698;2022-09-27T16:08:25;12.80;99.90
22073;DHT22;11202;50.916;4.698;2022-09-27T16:10:56;12.60;99.90
22073;DHT22;11202;50.916;4.698;2022-09-27T16:13:23;12.60;99.90
22073;DHT22;11202;50.916;4.698;2022-09-27T16:15:54;12.50;99.90
22073;DHT22;11202;50.916;4.698;2022-09-27T16:18:22;12.20;99.90
22073;DHT22;11202;50.916;4.698;2022-09-27T16:20:50;12.00;99.90
22073;DHT22;11202;50.916;4.698;2022-09-27T16:23:16;12.00;99.90
22073;DHT22;11202;50.916;4.698;2022-09-27T16:25:42;12.20;99.90
22073;DHT22;11202;50.916;4.698;2022-09-27T16:28:09;12.20;99.90
22073;DHT22;11202;50.916;4.698;2022-09-27T16:30:38;12.20;99.90
22073;DHT22;11202;50.916;4.698;2022-09-27T16:33:04;12.10;99.90
22073;DHT22;11202;50.916;4.698;2022-09-27T16:35:32;12.20;99.90
22073;DHT22;11202;50.916;4.698;2022-09-27T16:37:58;12.20;99.90
22073;DHT22;11202;50.916;4.698;2022-09-27T16:40:24;12.20;99.90
22073;DHT22;11202;50.916;4.698;2022-09-27T16:42:57;12.20;99.90
22073;DHT22;11202;50.916;4.698;2022-09-27T16:45:23;12.10;99.90
22073;DHT22;11202;50.916;4.698;2022-09-27T16:47:58;12.00;99.90
22073;DHT22;11202;50.916;4.698;2022-09-27T16:50:24;12.00;99.90
22073;DHT22;11202;50.916;4.698;2022-09-27T16:53:08;12.00;99.90
22073;DHT22;11202;50.916;4.698;2022-09-27T16:55:35;12.00;99.90
22073;DHT22;11202;50.916;4.698;2022-09-27T16:58:02;12.20;99.90
22073;DHT22;11202;50.916;4.698;2022-09-27T17:00:30;12.20;99.90
22073;DHT22;11202;50.916;4.698;2022-09-27T17:03:00;12.20;99.90
22073;DHT22;11202;50.916;4.698;2022-09-27T17:05:25;12.00;99.90
22073;DHT22;11202;50.916;4.698;2022-09-27T17:07:52;11.80;99.90
22073;DHT22;11202;50.916;4.698;2022-09-27T17:10:21;11.90;99.90
22073;DHT22;11202;50.916;4.698;2022-09-27T17:12:49;11.90;99.90
22073;DHT22;11202;50.916;4.698;2022-09-27T17:15:18;12.00;99.90
22073;DHT22;11202;50.916;4.698;2022-09-27T17:17:48;12.10;99.90
22073;DHT22;11202;50.916;4.698;2022-09-27T17:20:14;12.00;99.90
22073;DHT22;11202;50.916;4.698;2022-09-27T17:22:40;11.70;99.90
22073;DHT22;11202;50.916;4.698;2022-09-27T17:25:06;11.60;99.90
22073;DHT22;11202;50.916;4.698;2022-09-27T17:27:32;11.70;99.90
22073;DHT22;11202;50.916;4.698;2022-09-27T17:30:02;11.80;99.90
22073;DHT22;11202;50.916;4.698;2022-09-27T17:32:28;11.90;99.90
22073;DHT22;11202;50.916;4.698;2022-09-27T17:34:56;12.00;99.90
22073;DHT22;11202;50.916;4.698;2022-09-27T17:37:23;12.10;99.90
22073;DHT22;11202;50.916;4.698;2022-09-27T17:39:49;12.00;99.90
22073;DHT22;11202;50.916;4.698;2022-09-27T17:42:14;11.90;99.90
22073;DHT22;11202;50.916;4.698;2022-09-27T17:44:40;12.20;99.90
22073;DHT22;11202;50.916;4.698;2022-09-27T17:47:09;12.40;99.90
22073;DHT22;11202;50.916;4.698;2022-09-27T17:49:53;11.90;99.90
22073;DHT22;11202;50.916;4.698;2022-09-27T17:52:37;11.30;99.90
22073;DHT22;11202;50.916;4.698;2022-09-27T17:55:05;11.10;99.90
22073;DHT22;11202;50.916;4.698;2022-09-27T17:57:30;11.20;99.90
22073;DHT22;11202;50.916;4.698;2022-09-27T17:59:58;11.20;99.90
22073;DHT22;11202;50.916;4.698;2022-09-27T18:02:24;11.20;99.90
22073;DHT22;11202;50.916;4.698;2022-09-27T18:11:40;10.40;99.90
22073;DHT22;11202;50.916;4.698;2022-09-27T18:14:06;10.10;99.90
22073;DHT22;11202;50.916;4.698;2022-09-27T18:16:35;9.90;99.90
22073;DHT22;11202;50.916;4.698;2022-09-27T18:19:05;9.90;99.90
22073;DHT22;11202;50.916;4.698;2022-09-27T18:21:31;9.90;99.90
22073;DHT22;11202;50.916;4.698;2022-09-27T18:23:58;9.80;99.90
22073;DHT22;11202;50.916;4.698;2022-09-27T18:26:26;9.80;99.90
22073;DHT22;11202;50.916;4.698;2022-09-27T18:29:14;9.70;99.90
22073;DHT22;11202;50.916;4.698;2022-09-27T18:35:02;9.80;99.90